Time;durP1;ratioP1;P1;durP2;ratioP2;P2;SDS_P1;SDS_P2;PMS_P1;PMS_P2;Temp;Humidity;BMP_temperature;BMP_pressure;BME280_temperature;BME280_humidity;BME280_pressure;Samples;Min_cycle;Max_cycle;Signal;HPM_P1;HPM_P2
2022/01/01 00:02:23;;;;;;;24.83;10.45;;;14.50;86.50;;;;;;6190724;23;20423;-90
2022/01/01 00:04:49;;;;;;;25.58;10.65;;;14.60;85.80;;;;;;6190528;23;20173;-89
2022/01/01 00:07:16;;;;;;;24.37;11.40;;;14.70;85.30;;;;;;6212722;23;20239;-89
2022/01/01 00:09:45;;;;;;;28.23;9.77;;;14.70;84.60;;;;;;6221519;23;20376;-89
2022/01/01 00:12:12;;;;;;;29.20;10.57;;;14.60;84.50;;;;;;6190445;23;20158;-89
2022/01/01 00:14:57;;;;;;;19.98;10.00;;;14.60;84.80;;;;;;6189561;23;20161;-89
2022/01/01 00:17:23;;;;;;;26.73;12.02;;;14.60;84.70;;;;;;6217412;23;20229;-89
2022/01/01 00:19:49;;;;;;;31.30;11.25;;;14.70;84.40;;;;;;6190887;23;20227;-89
2022/01/01 00:22:15;;;;;;;20.77;11.63;;;14.70;84.20;;;;;;6217188;23;20173;-89
2022/01/01 00:24:40;;;;;;;23.93;11.40;;;14.70;84.10;;;;;;6189092;23;20160;-89
2022/01/01 00:27:06;;;;;;;28.13;11.63;;;14.60;84.10;;;;;;6190102;23;20164;-89
2022/01/01 00:29:32;;;;;;;24.73;13.30;;;14.60;84.10;;;;;;6190131;23;20191;-89
2022/01/01 00:31:58;;;;;;;25.93;11.50;;;14.50;84.20;;;;;;6189703;23;20279;-89
2022/01/01 00:34:24;;;;;;;28.70;13.13;;;14.50;84.50;;;;;;6189325;23;20233;-89
2022/01/01 00:36:50;;;;;;;31.88;13.02;;;14.50;84.50;;;;;;6190591;23;20502;-89
2022/01/01 00:39:16;;;;;;;35.83;14.17;;;14.50;84.40;;;;;;6191784;23;20149;-90
2022/01/01 00:41:42;;;;;;;27.47;15.07;;;14.40;84.50;;;;;;6193935;23;20179;-90
2022/01/01 00:44:08;;;;;;;23.17;14.35;;;14.20;84.70;;;;;;6193616;23;20256;-89
2022/01/01 00:46:34;;;;;;;34.77;14.47;;;14.20;84.90;;;;;;6197418;23;20172;-90
2022/01/01 00:48:59;;;;;;;21.60;13.50;;;14.10;85.20;;;;;;6197267;23;20654;-89
2022/01/01 00:51:25;;;;;;;34.53;15.73;;;14.20;85.20;;;;;;6193954;23;20169;-89
2022/01/01 00:53:51;;;;;;;31.85;15.27;;;14.20;85.30;;;;;;6190506;23;20232;-89
2022/01/01 00:56:17;;;;;;;41.27;17.13;;;14.10;85.50;;;;;;6190752;23;20572;-89
2022/01/01 00:58:42;;;;;;;30.90;16.67;;;14.10;85.50;;;;;;6189928;23;20168;-89
2022/01/01 01:01:08;;;;;;;33.57;16.40;;;14.00;85.50;;;;;;6189954;23;20496;-89
2022/01/01 01:03:34;;;;;;;35.90;16.40;;;13.90;85.80;;;;;;6189226;23;20226;-89
2022/01/01 01:06:00;;;;;;;33.72;17.23;;;14.00;85.80;;;;;;6189741;23;20192;-89
2022/01/01 01:08:27;;;;;;;35.97;16.50;;;14.00;85.90;;;;;;6190194;23;20229;-89
2022/01/01 01:10:55;;;;;;;31.65;17.88;;;14.10;85.90;;;;;;6189924;23;20376;-89
2022/01/01 01:13:21;;;;;;;38.35;19.00;;;14.10;85.80;;;;;;6190357;23;20157;-89
2022/01/01 01:15:47;;;;;;;30.60;16.70;;;14.00;85.70;;;;;;6190514;23;20181;-89
2022/01/01 01:18:12;;;;;;;35.93;17.07;;;13.90;86.00;;;;;;6191821;23;20168;-89
2022/01/01 01:20:39;;;;;;;34.90;15.80;;;14.00;86.10;;;;;;6193032;23;20157;-89
2022/01/01 01:23:05;;;;;;;26.08;16.27;;;13.90;86.10;;;;;;6218866;23;20196;-89
2022/01/01 01:25:39;;;;;;;34.58;15.88;;;14.00;86.10;;;;;;6196822;23;20555;-89
2022/01/01 01:28:07;;;;;;;28.20;15.07;;;13.90;86.00;;;;;;6194513;23;20145;-89
2022/01/01 01:30:36;;;;;;;33.15;14.65;;;14.00;86.10;;;;;;6194818;23;20157;-89
2022/01/01 01:33:02;;;;;;;26.17;15.70;;;14.00;86.20;;;;;;6195543;23;20154;-89
2022/01/01 01:35:28;;;;;;;37.03;14.85;;;14.10;86.30;;;;;;6200682;23;20188;-89
2022/01/01 01:37:54;;;;;;;25.40;13.27;;;14.20;86.00;;;;;;6190656;23;20161;-89
2022/01/01 01:40:19;;;;;;;25.87;13.63;;;14.20;85.80;;;;;;6190560;23;20571;-89
2022/01/01 01:42:45;;;;;;;27.40;14.00;;;14.20;85.80;;;;;;6195102;23;20427;-89
2022/01/01 01:45:16;;;;;;;24.33;12.77;;;14.20;85.80;;;;;;6197878;23;20180;-90
2022/01/01 01:47:43;;;;;;;26.80;13.13;;;14.10;86.10;;;;;;6206534;23;20160;-89
2022/01/01 01:50:11;;;;;;;23.05;13.02;;;14.10;86.30;;;;;;6192330;23;20161;-89
2022/01/01 01:52:38;;;;;;;17.67;11.30;;;14.20;86.20;;;;;;6191656;23;20218;-89
2022/01/01 01:55:07;;;;;;;18.00;10.98;;;14.20;86.00;;;;;;6192077;23;20181;-90
2022/01/01 01:57:35;;;;;;;24.20;11.90;;;14.40;85.40;;;;;;6194346;23;20161;-89
2022/01/01 02:00:04;;;;;;;29.70;12.38;;;14.50;84.70;;;;;;6214869;23;20164;-89
2022/01/01 02:02:30;;;;;;;21.45;10.90;;;14.30;84.20;;;;;;6195072;23;20205;-89
2022/01/01 02:04:55;;;;;;;27.67;12.20;;;14.30;84.30;;;;;;6192822;23;20184;-89
2022/01/01 02:07:21;;;;;;;17.60;10.77;;;14.30;84.40;;;;;;6191736;23;20178;-89
2022/01/01 02:09:47;;;;;;;17.83;10.30;;;14.30;84.40;;;;;;6194939;23;20200;-89
2022/01/01 02:12:13;;;;;;;21.10;10.80;;;14.30;84.50;;;;;;6195556;23;20185;-89
2022/01/01 02:17:27;;;;;;;17.98;9.25;;;14.40;83.90;;;;;;6236178;23;20137;-90
2022/01/01 02:20:13;;;;;;;30.98;10.38;;;14.50;83.80;;;;;;6196858;23;20243;-89
2022/01/01 02:22:50;;;;;;;20.92;9.43;;;14.40;83.50;;;;;;6191693;23;20177;-89
2022/01/01 02:25:19;;;;;;;14.85;9.45;;;14.40;84.30;;;;;;6191041;23;20180;-89
2022/01/01 02:27:45;;;;;;;17.40;9.45;;;14.40;83.30;;;;;;6190921;23;20181;-89
2022/01/01 02:30:13;;;;;;;25.17;9.47;;;14.40;83.40;;;;;;6190964;23;20582;-90
2022/01/01 02:32:39;;;;;;;14.88;8.88;;;14.50;83.50;;;;;;6190792;23;20395;-89
2022/01/01 02:35:07;;;;;;;15.90;9.23;;;14.60;83.20;;;;;;6217560;23;20173;-89
2022/01/01 02:37:35;;;;;;;17.30;11.40;;;14.50;82.80;;;;;;6190670;23;20478;-89
2022/01/01 02:40:04;;;;;;;15.73;9.32;;;14.50;83.40;;;;;;6190219;23;20161;-89
2022/01/01 02:42:30;;;;;;;24.50;8.95;;;14.40;82.50;;;;;;6191026;23;20184;-89
2022/01/01 02:44:58;;;;;;;18.20;8.80;;;14.50;82.60;;;;;;6190632;23;20248;-89
2022/01/01 02:47:24;;;;;;;13.73;7.82;;;14.50;82.70;;;;;;6190960;23;20623;-89
2022/01/01 02:49:50;;;;;;;15.97;8.63;;;14.40;83.50;;;;;;6191189;23;20154;-89
2022/01/01 02:52:16;;;;;;;15.43;8.20;;;14.40;82.60;;;;;;6190819;23;20399;-89
2022/01/01 02:54:41;;;;;;;17.33;7.90;;;14.40;82.90;;;;;;6217328;23;20153;-89
2022/01/01 02:57:07;;;;;;;17.27;8.43;;;14.40;83.00;;;;;;6191202;23;20215;-89
2022/01/01 02:59:32;;;;;;;14.00;7.70;;;14.50;83.20;;;;;;6191109;23;20622;-89
2022/01/01 03:01:58;;;;;;;18.27;8.43;;;14.60;83.10;;;;;;6190413;23;20153;-89
2022/01/01 03:04:24;;;;;;;18.03;7.83;;;14.60;82.70;;;;;;6189886;23;20153;-90
2022/01/01 03:06:55;;;;;;;15.37;8.30;;;14.60;82.50;;;;;;6190624;23;20184;-89
2022/01/01 03:09:23;;;;;;;22.63;9.40;;;14.50;82.50;;;;;;6190588;23;20232;-89
2022/01/01 03:11:50;;;;;;;27.70;7.20;;;14.50;82.70;;;;;;6190607;23;20153;-89
2022/01/01 03:14:17;;;;;;;16.10;9.20;;;14.60;82.70;;;;;;6190280;23;20615;-90
2022/01/01 03:16:47;;;;;;;19.45;7.95;;;14.60;82.50;;;;;;6190251;23;20177;-89
2022/01/01 03:19:13;;;;;;;22.08;8.23;;;14.60;82.20;;;;;;6190671;23;20161;-89
2022/01/01 03:21:39;;;;;;;13.75;7.22;;;14.60;82.10;;;;;;6191398;23;20183;-89
2022/01/01 03:24:06;;;;;;;14.70;7.70;;;14.60;82.20;;;;;;6189537;23;20181;-89
2022/01/01 03:26:32;;;;;;;20.08;6.90;;;14.70;81.60;;;;;;6189997;23;20177;-90
2022/01/01 03:28:58;;;;;;;16.63;9.60;;;14.70;81.40;;;;;;6189772;23;20153;-89
2022/01/01 03:31:25;;;;;;;25.40;8.30;;;14.80;81.10;;;;;;6190577;23;20165;-89
2022/01/01 03:33:51;;;;;;;16.65;6.82;;;14.70;80.90;;;;;;6192050;23;20449;-90
2022/01/01 03:36:18;;;;;;;25.25;9.50;;;14.70;81.00;;;;;;6197908;23;20181;-90
2022/01/01 03:38:43;;;;;;;30.70;11.60;;;14.60;81.00;;;;;;6203649;23;20157;-90
2022/01/01 03:41:09;;;;;;;20.10;8.93;;;14.60;81.20;;;;;;6208878;23;20153;-90
2022/01/01 03:43:34;;;;;;;9.63;6.07;;;14.50;81.50;;;;;;6202426;23;20185;-90
2022/01/01 03:46:00;;;;;;;12.50;6.57;;;14.60;81.30;;;;;;6226106;23;20165;-89
2022/01/01 03:48:27;;;;;;;17.93;6.33;;;14.70;81.00;;;;;;6196911;23;20498;-89
2022/01/01 03:50:57;;;;;;;12.10;5.25;;;14.60;80.80;;;;;;6195466;23;20165;-89
2022/01/01 03:53:24;;;;;;;15.55;6.28;;;14.70;80.70;;;;;;6214240;23;20137;-90
2022/01/01 03:55:50;;;;;;;15.02;7.10;;;14.60;80.70;;;;;;6194021;23;20173;-90
2022/01/01 03:58:16;;;;;;;10.97;6.30;;;14.70;80.60;;;;;;6190563;23;20634;-90
2022/01/01 04:00:41;;;;;;;15.23;5.90;;;14.50;80.40;;;;;;6189942;23;20865;-89
2022/01/01 04:03:17;;;;;;;9.80;6.30;;;14.50;80.90;;;;;;6189949;23;20211;-89
2022/01/01 04:05:44;;;;;;;19.70;6.50;;;14.40;81.20;;;;;;6189629;23;20196;-89
2022/01/01 04:08:11;;;;;;;12.48;6.40;;;14.40;81.20;;;;;;6189846;23;20153;-89
2022/01/01 04:10:39;;;;;;;12.25;6.30;;;14.40;81.30;;;;;;6189980;23;20163;-89
2022/01/01 04:13:06;;;;;;;14.05;6.53;;;14.40;81.20;;;;;;6189810;23;20167;-89
2022/01/01 04:15:33;;;;;;;15.63;6.72;;;14.40;81.70;;;;;;6189793;23;20177;-89
2022/01/01 04:18:07;;;;;;;13.88;6.95;;;14.30;81.70;;;;;;6216866;23;20204;-89
2022/01/01 04:20:33;;;;;;;12.98;6.38;;;14.20;81.90;;;;;;6189956;23;20149;-89
2022/01/01 04:22:59;;;;;;;14.10;6.43;;;14.30;82.30;;;;;;6216134;23;20173;-89
2022/01/01 04:25:26;;;;;;;14.63;6.97;;;14.40;82.00;;;;;;6189996;23;20453;-89
2022/01/01 04:27:54;;;;;;;9.68;6.47;;;14.50;81.60;;;;;;6190475;23;20153;-89
2022/01/01 04:30:20;;;;;;;11.00;6.45;;;14.30;81.50;;;;;;6190157;23;20158;-89
2022/01/01 04:32:45;;;;;;;13.40;6.25;;;14.40;81.70;;;;;;6189619;23;20161;-89
2022/01/01 04:35:12;;;;;;;19.10;7.43;;;14.40;81.80;;;;;;6190211;23;20520;-90
2022/01/01 04:37:38;;;;;;;13.45;6.20;;;14.50;81.50;;;;;;6189983;23;20189;-89
2022/01/01 04:40:05;;;;;;;18.05;6.43;;;14.60;80.90;;;;;;6190046;23;20180;-89
2022/01/01 04:42:31;;;;;;;16.23;7.40;;;14.60;80.40;;;;;;6189316;23;20188;-89
2022/01/01 04:44:58;;;;;;;16.52;7.40;;;14.40;80.60;;;;;;6189901;23;20181;-89
2022/01/01 04:47:24;;;;;;;12.38;6.43;;;14.20;80.70;;;;;;6190398;23;20611;-89
2022/01/01 04:49:50;;;;;;;19.92;7.28;;;14.10;80.80;;;;;;6190524;23;20244;-89
2022/01/01 04:52:16;;;;;;;13.33;6.70;;;14.10;81.40;;;;;;6191566;23;20157;-89
2022/01/01 04:54:42;;;;;;;9.07;7.10;;;14.20;81.50;;;;;;6219875;23;20149;-89
2022/01/01 04:57:08;;;;;;;11.55;6.57;;;14.10;81.40;;;;;;6196497;23;20510;-89
2022/01/01 04:59:35;;;;;;;13.60;7.90;;;13.90;81.40;;;;;;6190174;23;20499;-89
2022/01/01 05:02:01;;;;;;;21.10;6.82;;;13.80;81.90;;;;;;6189873;23;20215;-89
2022/01/01 05:04:27;;;;;;;15.00;7.18;;;13.80;82.10;;;;;;6190443;23;20161;-90
2022/01/01 05:06:52;;;;;;;19.60;7.47;;;13.80;82.30;;;;;;6197202;23;20245;-88
2022/01/01 05:09:19;;;;;;;13.13;7.37;;;13.70;82.40;;;;;;6200506;23;20161;-89
2022/01/01 05:11:48;;;;;;;16.10;6.88;;;13.60;82.60;;;;;;6200465;23;20184;-88
2022/01/01 05:14:16;;;;;;;15.75;6.60;;;13.60;83.00;;;;;;6227398;23;20153;-88
2022/01/01 05:16:42;;;;;;;13.05;7.70;;;13.60;83.20;;;;;;6198558;23;20177;-89
2022/01/01 05:19:10;;;;;;;19.85;8.05;;;13.60;83.10;;;;;;6196136;23;20187;-88
2022/01/01 05:21:36;;;;;;;21.05;8.57;;;13.40;83.10;;;;;;6193267;23;20169;-88
2022/01/01 05:24:04;;;;;;;14.60;7.70;;;13.40;83.40;;;;;;6197516;23;20245;-88
2022/01/01 05:26:31;;;;;;;25.08;8.63;;;13.30;83.70;;;;;;6199802;23;20180;-88
2022/01/01 05:28:57;;;;;;;15.18;8.35;;;13.30;83.90;;;;;;6203001;23;20241;-88
2022/01/01 05:31:23;;;;;;;22.47;8.30;;;13.20;83.90;;;;;;6193661;23;20332;-89
2022/01/01 05:33:52;;;;;;;17.13;9.07;;;13.10;84.00;;;;;;6214838;23;20400;-88
2022/01/01 05:36:19;;;;;;;20.23;8.07;;;12.90;84.30;;;;;;6194623;23;20487;-88
2022/01/01 05:38:46;;;;;;;29.23;10.13;;;12.80;85.00;;;;;;6192900;23;20157;-88
2022/01/01 05:41:12;;;;;;;20.60;10.13;;;12.80;85.40;;;;;;6221867;23;20149;-88
2022/01/01 05:43:38;;;;;;;22.38;9.45;;;12.90;85.60;;;;;;6200196;23;20180;-88
2022/01/01 05:46:05;;;;;;;22.42;10.07;;;13.10;85.50;;;;;;6203512;23;20173;-88
2022/01/01 05:48:31;;;;;;;21.08;8.55;;;13.00;85.30;;;;;;6196076;23;20603;-88
2022/01/01 05:50:56;;;;;;;19.05;8.55;;;13.10;84.90;;;;;;6192496;23;20168;-88
2022/01/01 05:53:22;;;;;;;18.10;9.10;;;13.10;84.60;;;;;;6192019;23;20213;-88
2022/01/01 05:55:48;;;;;;;12.37;8.93;;;13.20;84.40;;;;;;6191685;23;20666;-88
2022/01/01 05:58:15;;;;;;;11.27;8.85;;;13.30;84.40;;;;;;6192303;23;20164;-88
2022/01/01 06:00:41;;;;;;;10.90;7.63;;;13.30;84.00;;;;;;6192483;23;20176;-88
2022/01/01 06:03:07;;;;;;;14.52;8.75;;;13.40;84.40;;;;;;6191402;23;20188;-88
2022/01/01 06:05:33;;;;;;;18.40;9.20;;;13.50;83.50;;;;;;6192295;23;20205;-88
2022/01/01 06:08:00;;;;;;;19.77;9.90;;;13.40;83.10;;;;;;6192424;23;20575;-88
2022/01/01 06:10:26;;;;;;;13.07;9.40;;;13.40;83.10;;;;;;6191555;23;20157;-88
2022/01/01 06:12:52;;;;;;;21.35;9.60;;;13.40;83.10;;;;;;6191797;23;20161;-88
2022/01/01 06:15:18;;;;;;;20.05;8.40;;;13.30;83.30;;;;;;6192455;23;20177;-89
2022/01/01 06:17:44;;;;;;;10.85;8.05;;;13.00;83.60;;;;;;6192739;23;20157;-88
2022/01/01 06:20:11;;;;;;;15.03;8.73;;;13.00;84.00;;;;;;6191307;23;20208;-88
2022/01/01 06:22:37;;;;;;;19.17;9.70;;;12.80;84.50;;;;;;6191423;23;20477;-88
2022/01/01 06:25:03;;;;;;;21.98;10.60;;;13.10;84.80;;;;;;6217885;23;20217;-88
2022/01/01 06:27:29;;;;;;;13.77;8.32;;;13.30;84.30;;;;;;6192006;23;20157;-88
2022/01/01 06:29:55;;;;;;;20.37;10.03;;;13.20;83.80;;;;;;6191573;23;20475;-89
2022/01/01 06:32:21;;;;;;;16.37;9.33;;;13.40;83.80;;;;;;6218327;23;20522;-88
2022/01/01 06:34:47;;;;;;;15.10;9.20;;;13.50;83.70;;;;;;6219627;23;20169;-88
2022/01/01 06:37:13;;;;;;;20.80;10.68;;;13.10;83.40;;;;;;6198796;23;20415;-88
2022/01/01 06:39:38;;;;;;;18.05;9.60;;;13.10;83.70;;;;;;6200216;23;20157;-88
2022/01/01 06:42:04;;;;;;;23.03;8.60;;;13.00;84.10;;;;;;6203793;23;20157;-89
2022/01/01 06:44:30;;;;;;;15.07;9.43;;;13.00;84.40;;;;;;6206475;23;20204;-88
2022/01/01 06:46:56;;;;;;;15.80;10.23;;;13.00;84.40;;;;;;6196891;23;20380;-88
2022/01/01 06:49:21;;;;;;;18.57;10.20;;;13.20;84.40;;;;;;6193226;23;20483;-88
2022/01/01 06:51:47;;;;;;;16.37;10.13;;;13.30;84.20;;;;;;6191289;23;20185;-88
2022/01/01 06:54:13;;;;;;;21.30;9.73;;;13.30;84.00;;;;;;6191006;23;20157;-88
2022/01/01 06:56:39;;;;;;;23.80;11.55;;;13.30;83.80;;;;;;6191774;23;20439;-88
2022/01/01 06:59:05;;;;;;;21.93;11.37;;;13.30;83.70;;;;;;6192958;23;20223;-88
2022/01/01 07:01:31;;;;;;;19.07;12.60;;;13.40;83.30;;;;;;6191294;23;20866;-88
2022/01/01 07:03:57;;;;;;;22.37;12.10;;;13.20;83.20;;;;;;6190295;23;20204;-88
2022/01/01 07:06:23;;;;;;;21.33;11.98;;;13.00;83.50;;;;;;6191320;23;20189;-89
2022/01/01 07:08:49;;;;;;;17.77;12.03;;;13.20;84.20;;;;;;6191896;23;20180;-88
2022/01/01 07:11:15;;;;;;;27.92;15.07;;;13.00;84.00;;;;;;6218052;23;20746;-88
2022/01/01 07:13:41;;;;;;;26.27;12.67;;;13.00;84.60;;;;;;6190272;23;20164;-88
2022/01/01 07:16:06;;;;;;;26.90;13.27;;;13.00;84.50;;;;;;6191337;23;20408;-88
2022/01/01 07:18:32;;;;;;;25.47;13.93;;;13.10;84.60;;;;;;6219727;23;20150;-88
2022/01/01 07:20:58;;;;;;;25.87;13.97;;;13.00;84.50;;;;;;6194583;23;20168;-88
2022/01/01 07:23:24;;;;;;;22.53;12.97;;;13.10;84.70;;;;;;6196540;23;20431;-88
2022/01/01 07:25:50;;;;;;;30.67;16.10;;;13.10;84.40;;;;;;6200374;23;20731;-88
2022/01/01 07:28:16;;;;;;;23.30;15.18;;;12.90;84.70;;;;;;6193431;23;20385;-88
2022/01/01 07:30:46;;;;;;;29.63;14.07;;;13.00;84.70;;;;;;6191155;23;20157;-88
2022/01/01 07:33:13;;;;;;;28.67;14.73;;;13.00;84.60;;;;;;6190417;23;20164;-88
2022/01/01 07:35:39;;;;;;;25.60;14.73;;;13.00;84.50;;;;;;6190714;23;20181;-89
2022/01/01 07:38:05;;;;;;;23.88;14.85;;;12.90;84.60;;;;;;6199939;23;20145;-89
2022/01/01 07:40:34;;;;;;;29.45;14.00;;;12.90;84.70;;;;;;6211447;23;20177;-88
2022/01/01 07:43:01;;;;;;;29.38;15.65;;;13.00;84.70;;;;;;6191702;23;20185;-88
2022/01/01 07:45:27;;;;;;;25.67;15.32;;;13.10;84.70;;;;;;6191562;23;20173;-88
2022/01/01 07:47:52;;;;;;;28.43;14.60;;;13.00;84.40;;;;;;6191194;23;20183;-88
2022/01/01 07:50:18;;;;;;;26.77;14.47;;;13.10;84.50;;;;;;6190190;23;20164;-89
2022/01/01 07:52:44;;;;;;;28.63;16.50;;;12.90;84.50;;;;;;6190202;23;20165;-88
2022/01/01 07:55:10;;;;;;;34.30;16.93;;;12.80;84.80;;;;;;6191239;23;20256;-89
2022/01/01 07:57:36;;;;;;;34.50;18.00;;;12.90;85.00;;;;;;6190570;23;20161;-89
2022/01/01 08:00:04;;;;;;;32.83;18.20;;;13.00;84.70;;;;;;6190490;23;20164;-89
2022/01/01 08:02:30;;;;;;;33.60;17.42;;;13.00;84.40;;;;;;6191382;23;20188;-89
2022/01/01 08:04:56;;;;;;;37.70;17.80;;;13.00;84.30;;;;;;6193265;23;20231;-89
2022/01/01 08:07:22;;;;;;;32.03;17.73;;;13.10;84.50;;;;;;6194898;23;20153;-89
2022/01/01 08:09:48;;;;;;;35.47;16.37;;;13.20;84.10;;;;;;6197895;23;20168;-89
2022/01/01 08:12:13;;;;;;;25.53;14.57;;;13.10;84.00;;;;;;6197070;23;20236;-89
2022/01/01 08:14:39;;;;;;;24.67;16.00;;;13.10;84.40;;;;;;6195273;23;20153;-89
2022/01/01 08:17:06;;;;;;;33.93;17.17;;;13.30;84.10;;;;;;6194796;23;20160;-89
2022/01/01 08:19:32;;;;;;;30.83;16.05;;;13.30;83.50;;;;;;6190428;23;20172;-89
2022/01/01 08:21:58;;;;;;;26.85;15.70;;;13.40;83.50;;;;;;6189791;23;20180;-89
2022/01/01 08:24:24;;;;;;;31.17;15.82;;;13.40;83.20;;;;;;6217788;23;20177;-89
2022/01/01 08:26:51;;;;;;;34.90;15.25;;;13.30;83.20;;;;;;6193411;23;20232;-89
2022/01/01 08:29:17;;;;;;;30.70;16.13;;;13.10;83.20;;;;;;6220596;23;20149;-89
2022/01/01 08:31:43;;;;;;;28.95;14.90;;;13.20;83.50;;;;;;6189668;23;20153;-89
2022/01/01 08:34:09;;;;;;;28.55;15.68;;;13.10;83.90;;;;;;6190374;23;20183;-88
2022/01/01 08:36:35;;;;;;;29.02;14.27;;;13.20;84.00;;;;;;6190855;23;20177;-89
2022/01/01 08:39:02;;;;;;;26.70;15.00;;;13.20;83.60;;;;;;6190495;23;20157;-89
2022/01/01 08:41:28;;;;;;;31.77;15.00;;;13.10;83.70;;;;;;6190797;23;20384;-89
2022/01/01 08:43:53;;;;;;;26.37;15.10;;;13.30;83.90;;;;;;6189644;23;20223;-89
2022/01/01 08:46:19;;;;;;;26.07;15.70;;;13.30;83.70;;;;;;6190156;23;20177;-89
2022/01/01 08:48:45;;;;;;;26.80;14.47;;;13.20;83.60;;;;;;6193990;23;20157;-89
2022/01/01 08:51:21;;;;;;;25.63;15.80;;;13.10;83.60;;;;;;6220424;23;20152;-89
2022/01/01 08:53:47;;;;;;;26.02;15.60;;;13.10;84.40;;;;;;6191889;23;20149;-89
2022/01/01 08:56:14;;;;;;;22.63;13.60;;;13.00;84.20;;;;;;6193341;23;20208;-89
2022/01/01 08:58:41;;;;;;;28.20;15.18;;;12.90;84.50;;;;;;6193306;23;20157;-89
2022/01/01 09:01:07;;;;;;;29.42;15.07;;;12.80;84.80;;;;;;6193672;23;20176;-89
2022/01/01 09:03:37;;;;;;;28.30;15.38;;;13.00;85.30;;;;;;6192206;23;20221;-89
2022/01/01 09:06:04;;;;;;;26.13;15.85;;;13.00;85.00;;;;;;6191854;23;20212;-89
2022/01/01 09:08:31;;;;;;;28.70;15.35;;;12.80;85.20;;;;;;6191840;23;20189;-89
2022/01/01 09:10:57;;;;;;;30.73;17.60;;;12.70;85.60;;;;;;6193177;23;20158;-89
2022/01/01 09:13:22;;;;;;;28.27;14.80;;;12.60;86.10;;;;;;6197195;23;20614;-89
2022/01/01 09:15:48;;;;;;;25.87;15.00;;;12.70;86.60;;;;;;6208477;23;20177;-89
2022/01/01 09:18:14;;;;;;;28.80;15.70;;;12.50;86.50;;;;;;6233605;23;20153;-90
2022/01/01 09:20:40;;;;;;;23.98;14.10;;;12.60;86.80;;;;;;6207161;23;20152;-88
2022/01/01 09:23:06;;;;;;;29.73;15.50;;;12.70;86.80;;;;;;6197815;23;20189;-89
2022/01/01 09:25:31;;;;;;;22.27;13.87;;;12.70;86.70;;;;;;6194597;23;20173;-89
2022/01/01 09:28:16;;;;;;;24.33;13.93;;;12.70;86.60;;;;;;6197161;23;20384;-89
2022/01/01 09:30:42;;;;;;;25.45;14.88;;;12.70;86.40;;;;;;6210877;23;20152;-89
2022/01/01 09:33:09;;;;;;;20.63;13.50;;;12.60;86.60;;;;;;6198078;23;20191;-87
2022/01/01 09:35:35;;;;;;;23.55;13.50;;;12.50;86.90;;;;;;6195809;23;20251;-88
2022/01/01 09:38:01;;;;;;;25.47;14.20;;;12.60;87.20;;;;;;6221202;23;20520;-87
2022/01/01 09:40:28;;;;;;;25.83;14.73;;;12.50;87.40;;;;;;6197289;23;20165;-88
2022/01/01 09:42:55;;;;;;;24.10;15.20;;;12.50;87.50;;;;;;6225006;23;20176;-88
2022/01/01 09:45:21;;;;;;;23.35;13.38;;;12.40;87.60;;;;;;6195516;23;20173;-89
2022/01/01 09:47:48;;;;;;;25.23;13.88;;;12.40;87.70;;;;;;6193303;23;20615;-88
2022/01/01 09:50:14;;;;;;;24.67;13.15;;;12.30;87.50;;;;;;6191287;23;20160;-88
2022/01/01 09:52:40;;;;;;;18.67;12.40;;;12.40;87.90;;;;;;6191891;23;20157;-88
2022/01/01 09:55:06;;;;;;;24.17;12.77;;;12.50;88.10;;;;;;6190652;23;20181;-89
2022/01/01 09:57:32;;;;;;;23.20;13.48;;;12.60;87.70;;;;;;6191499;23;20392;-88
2022/01/01 09:59:57;;;;;;;23.17;12.70;;;12.80;87.30;;;;;;6191303;23;20165;-88
2022/01/01 10:02:23;;;;;;;19.47;12.70;;;12.70;86.70;;;;;;6217972;23;20177;-88
2022/01/01 10:04:51;;;;;;;17.33;11.13;;;12.90;86.70;;;;;;6191015;23;20177;-88
2022/01/01 10:07:26;;;;;;;18.55;11.30;;;13.00;86.30;;;;;;6217519;23;20197;-88
2022/01/01 10:09:52;;;;;;;19.30;10.45;;;12.90;86.10;;;;;;6191284;23;20226;-88
2022/01/01 10:12:18;;;;;;;17.50;10.23;;;13.10;85.90;;;;;;6191375;23;20161;-88
2022/01/01 10:14:46;;;;;;;19.95;11.98;;;13.00;85.90;;;;;;6190491;23;20248;-88
2022/01/01 10:17:17;;;;;;;14.93;10.07;;;12.90;85.90;;;;;;6192106;23;20385;-88
2022/01/01 10:19:43;;;;;;;14.93;10.07;;;12.70;86.40;;;;;;6220558;23;20153;-87
2022/01/01 10:22:18;;;;;;;15.10;10.18;;;12.90;86.70;;;;;;6193481;23;20232;-88
2022/01/01 10:27:45;;;;;;;17.38;10.65;;;12.90;86.00;;;;;;6217938;23;20145;-88
2022/01/01 10:30:24;;;;;;;17.65;9.38;;;12.90;86.40;;;;;;6190785;23;20145;-88
2022/01/01 10:33:07;;;;;;;13.05;9.30;;;12.90;86.70;;;;;;6191604;23;20150;-88
2022/01/01 10:35:41;;;;;;;18.33;10.32;;;13.30;86.50;;;;;;6192261;23;20738;-90
2022/01/01 10:38:30;;;;;;;12.00;8.40;;;13.20;85.80;;;;;;6192400;23;20232;-89
2022/01/01 10:41:05;;;;;;;18.77;9.23;;;13.20;85.50;;;;;;6217195;23;20215;-90
2022/01/01 10:43:42;;;;;;;10.75;9.13;;;13.10;85.90;;;;;;6190718;23;20172;-89
2022/01/01 10:46:15;;;;;;;14.25;9.07;;;13.10;86.00;;;;;;6191563;23;20181;-90
2022/01/01 10:48:54;;;;;;;17.08;9.52;;;13.00;86.30;;;;;;6191882;23;20236;-89
2022/01/01 10:51:21;;;;;;;15.10;10.15;;;13.10;86.50;;;;;;6192640;23;20138;-88
2022/01/01 10:54:01;;;;;;;16.92;9.95;;;13.00;86.40;;;;;;6190482;23;20168;-89
2022/01/01 10:56:36;;;;;;;12.13;8.13;;;13.00;86.60;;;;;;6194388;23;20512;-89
2022/01/01 10:59:02;;;;;;;14.35;7.82;;;13.00;86.90;;;;;;6196062;23;20145;-89
2022/01/01 11:01:28;;;;;;;17.90;9.43;;;13.30;86.70;;;;;;6194309;23;20168;-89
2022/01/01 11:03:57;;;;;;;12.77;7.77;;;13.30;86.00;;;;;;6197580;23;20427;-89
2022/01/01 11:06:22;;;;;;;12.23;8.05;;;13.40;85.90;;;;;;6200016;23;20189;-90
2022/01/01 11:08:49;;;;;;;10.70;7.10;;;13.40;85.30;;;;;;6205324;23;20227;-89
2022/01/01 11:11:15;;;;;;;12.68;8.00;;;13.30;85.50;;;;;;6200267;23;20215;-89
2022/01/01 11:13:43;;;;;;;10.07;6.53;;;13.20;85.60;;;;;;6194528;23;20220;-90
2022/01/01 11:16:09;;;;;;;12.20;8.50;;;13.40;85.70;;;;;;6192380;23;20177;-89
2022/01/01 11:18:36;;;;;;;13.35;8.88;;;13.50;85.20;;;;;;6191546;23;20310;-89
2022/01/01 11:21:04;;;;;;;9.63;7.40;;;13.70;85.10;;;;;;6193328;23;20157;-89
2022/01/01 11:23:31;;;;;;;15.15;9.20;;;13.80;84.50;;;;;;6215314;23;20253;-90
2022/01/01 11:26:02;;;;;;;17.65;7.35;;;14.10;84.10;;;;;;6194265;23;20181;-89
2022/01/01 11:28:28;;;;;;;13.45;7.85;;;14.20;83.20;;;;;;6190660;23;20532;-90
2022/01/01 11:31:07;;;;;;;17.30;7.40;;;14.30;82.60;;;;;;6191251;23;20158;-90
2022/01/01 11:33:41;;;;;;;9.13;6.50;;;14.40;82.30;;;;;;6191715;23;20141;-90
2022/01/01 11:36:08;;;;;;;8.38;6.38;;;14.50;81.60;;;;;;6196337;23;20177;-90
2022/01/01 11:38:35;;;;;;;10.00;6.93;;;14.50;81.60;;;;;;6193954;23;20518;-92
2022/01/01 11:41:14;;;;;;;11.13;8.43;;;14.80;81.90;;;;;;6191943;23;20163;-92
2022/01/01 11:43:41;;;;;;;14.20;8.82;;;14.30;80.80;;;;;;6191668;23;20209;-92
2022/01/01 11:46:13;;;;;;;11.82;8.05;;;14.20;81.30;;;;;;6192735;23;20173;-93
2022/01/01 11:48:54;;;;;;;10.63;8.15;;;14.50;81.60;;;;;;6196604;23;20149;-92
2022/01/01 11:51:31;;;;;;;9.30;7.13;;;14.50;81.20;;;;;;6194823;23;20161;-92
2022/01/01 11:54:14;;;;;;;8.63;7.75;;;14.50;81.00;;;;;;6191907;23;20148;-92
2022/01/01 11:56:49;;;;;;;11.00;7.20;;;14.50;80.90;;;;;;6194375;23;20217;-92
2022/01/01 11:59:23;;;;;;;9.90;7.03;;;14.70;80.90;;;;;;6198471;23;20158;-92
2022/01/01 12:01:55;;;;;;;16.60;7.75;;;14.80;80.50;;;;;;6201926;23;20156;-92
2022/01/01 12:04:37;;;;;;;14.13;8.10;;;14.60;79.80;;;;;;6194271;23;20184;-91
2022/01/01 12:07:28;;;;;;;11.60;8.90;;;14.80;80.40;;;;;;6192874;23;20180;-90
2022/01/01 12:10:06;;;;;;;7.60;6.22;;;14.80;79.80;;;;;;6191989;23;20152;-91
2022/01/01 12:13:00;;;;;;;15.02;6.53;;;14.80;79.70;;;;;;6192459;23;20505;-91
2022/01/01 12:15:29;;;;;;;6.13;5.45;;;14.90;79.40;;;;;;6191547;23;20256;-91
2022/01/01 12:18:03;;;;;;;14.40;6.68;;;15.00;79.40;;;;;;6192053;23;20157;-91
2022/01/01 12:20:34;;;;;;;8.68;7.07;;;15.10;79.20;;;;;;6189982;23;20153;-91
2022/01/01 12:23:12;;;;;;;6.97;5.22;;;15.20;79.00;;;;;;6190348;23;20180;-91
2022/01/01 12:25:39;;;;;;;9.75;4.97;;;15.20;79.00;;;;;;6190642;23;20181;-91
2022/01/01 12:28:10;;;;;;;7.95;4.43;;;15.30;78.50;;;;;;6218724;23;20169;-91
2022/01/01 12:31:04;;;;;;;5.72;4.95;;;15.10;78.20;;;;;;6194011;23;20141;-91
2022/01/01 12:33:42;;;;;;;5.18;4.00;;;15.30;78.60;;;;;;6194576;23;20224;-91
2022/01/01 12:36:29;;;;;;;5.15;4.15;;;15.20;77.90;;;;;;6197010;23;20181;-91
2022/01/01 12:38:56;;;;;;;5.25;4.07;;;15.20;77.60;;;;;;6196553;23;20385;-91
2022/01/01 12:41:32;;;;;;;5.93;4.05;;;15.00;78.10;;;;;;6199230;23;20157;-91
2022/01/01 12:44:01;;;;;;;10.95;4.03;;;15.20;78.40;;;;;;6195727;23;20176;-91